createdAt,value
2017-10-12T00:01:53.868Z,11.90
2017-10-12T00:04:20.093Z,12.00
2017-10-12T00:06:46.301Z,11.90
2017-10-12T00:09:12.494Z,11.90
2017-10-12T00:11:38.732Z,11.90
2017-10-12T00:14:04.931Z,11.90
2017-10-12T00:16:31.148Z,11.90
2017-10-12T00:18:57.352Z,11.90
2017-10-12T00:21:23.569Z,11.80
2017-10-12T00:23:49.780Z,11.80
2017-10-12T00:26:16.376Z,11.80
2017-10-12T00:28:42.594Z,11.80
2017-10-12T00:31:08.827Z,11.80
2017-10-12T00:33:35.038Z,11.80
2017-10-12T00:36:01.288Z,11.80
2017-10-12T00:38:27.513Z,11.70
2017-10-12T00:40:53.746Z,11.70
2017-10-12T00:43:19.989Z,11.70
2017-10-12T00:45:46.195Z,11.70
2017-10-12T00:48:12.439Z,11.70
2017-10-12T00:50:38.637Z,11.70
2017-10-12T00:53:04.871Z,11.70
2017-10-12T00:55:31.120Z,11.70
2017-10-12T00:57:57.331Z,11.70
2017-10-12T01:00:23.597Z,11.70
2017-10-12T01:02:49.827Z,11.70
2017-10-12T01:05:16.067Z,11.70
2017-10-12T01:07:42.310Z,11.70
2017-10-12T01:10:08.575Z,11.70
2017-10-12T01:12:34.826Z,11.70
2017-10-12T01:15:01.056Z,11.60
2017-10-12T01:17:27.254Z,11.70
2017-10-12T01:19:53.534Z,11.80
2017-10-12T01:22:19.797Z,11.80
2017-10-12T01:24:45.998Z,11.80
2017-10-12T01:27:12.633Z,11.70
2017-10-12T01:29:39.243Z,11.70
2017-10-12T01:32:05.503Z,11.70
2017-10-12T01:34:32.086Z,11.90
2017-10-12T01:36:58.740Z,11.90
2017-10-12T01:39:24.967Z,11.90
2017-10-12T01:41:51.178Z,12.00
2017-10-12T01:44:17.666Z,12.10
2017-10-12T01:46:44.307Z,12.00
2017-10-12T01:49:12.963Z,12.00
2017-10-12T01:51:39.224Z,12.00
2017-10-12T01:54:05.811Z,11.90
2017-10-12T01:56:32.199Z,11.90
2017-10-12T01:58:58.684Z,11.80
2017-10-12T02:01:24.872Z,11.80
2017-10-12T02:03:51.106Z,11.70
2017-10-12T02:06:17.328Z,11.70
2017-10-12T02:08:43.544Z,11.70
2017-10-12T02:11:09.784Z,11.70
2017-10-12T02:13:35.966Z,11.70
2017-10-12T02:16:02.196Z,11.70
2017-10-12T02:18:28.449Z,11.60
2017-10-12T02:20:54.674Z,11.60
2017-10-12T02:23:21.261Z,11.70
2017-10-12T02:25:47.508Z,11.70
2017-10-12T02:28:13.760Z,11.50
2017-10-12T02:30:40.358Z,11.50
2017-10-12T02:33:06.589Z,11.50
2017-10-12T02:35:32.795Z,11.50
2017-10-12T02:37:59.020Z,11.50
2017-10-12T02:40:25.236Z,11.50
2017-10-12T02:42:51.432Z,11.50
2017-10-12T02:45:18.052Z,11.50
2017-10-12T02:47:44.295Z,11.50
2017-10-12T02:50:10.935Z,11.50
2017-10-12T02:52:37.533Z,11.50
2017-10-12T02:55:03.785Z,11.50
2017-10-12T02:57:30.010Z,11.40
2017-10-12T02:59:56.208Z,11.40
2017-10-12T03:02:22.459Z,11.30
2017-10-12T03:04:48.658Z,11.30
2017-10-12T03:07:14.888Z,11.40
2017-10-12T03:09:41.104Z,11.40
2017-10-12T03:12:07.336Z,11.40
2017-10-12T03:14:33.538Z,11.30
2017-10-12T03:17:00.125Z,11.20
2017-10-12T03:19:26.324Z,11.20
2017-10-12T03:21:52.530Z,11.20
2017-10-12T03:24:18.782Z,11.30
2017-10-12T03:26:45.036Z,11.30
2017-10-12T03:29:11.283Z,11.20
2017-10-12T03:31:37.502Z,11.10
2017-10-12T03:34:03.712Z,11.20
2017-10-12T03:36:29.971Z,11.40
2017-10-12T03:38:56.191Z,11.40
2017-10-12T03:41:22.451Z,11.40
2017-10-12T03:43:48.695Z,11.50
2017-10-12T03:46:14.964Z,11.50
2017-10-12T03:48:41.210Z,11.40
2017-10-12T03:51:07.732Z,11.50
2017-10-12T03:53:33.997Z,11.40
2017-10-12T03:56:00.188Z,11.20
2017-10-12T03:58:26.396Z,11.30
2017-10-12T04:00:52.586Z,11.40
2017-10-12T04:03:19.172Z,11.50
2017-10-12T04:05:45.393Z,11.50
2017-10-12T04:08:11.611Z,11.40
2017-10-12T04:10:37.792Z,11.40
2017-10-12T04:13:04.053Z,11.40
2017-10-12T04:15:30.271Z,11.30
2017-10-12T04:17:56.469Z,11.30
2017-10-12T04:20:22.685Z,11.20
2017-10-12T04:22:49.829Z,11.20
2017-10-12T04:25:16.043Z,11.20
2017-10-12T04:27:42.305Z,11.20
2017-10-12T04:30:08.894Z,11.10
2017-10-12T04:32:35.094Z,11.10
2017-10-12T04:35:01.336Z,11.10
2017-10-12T04:37:27.521Z,11.10
2017-10-12T04:39:53.729Z,11.10
2017-10-12T04:42:19.934Z,11.10
2017-10-12T04:44:46.127Z,11.00
2017-10-12T04:47:12.408Z,10.90
2017-10-12T04:49:38.606Z,10.90
2017-10-12T04:52:04.813Z,10.90
2017-10-12T04:54:31.003Z,10.90
2017-10-12T04:56:57.252Z,11.00
2017-10-12T04:59:23.860Z,11.00
2017-10-12T05:01:51.064Z,11.10
2017-10-12T05:04:17.300Z,10.90
2017-10-12T05:06:43.526Z,10.90
2017-10-12T05:09:09.743Z,10.80
2017-10-12T05:11:35.931Z,10.80
2017-10-12T05:14:02.139Z,10.80
2017-10-12T05:16:28.318Z,10.80
2017-10-12T05:18:54.547Z,10.80
2017-10-12T05:21:20.756Z,10.70
2017-10-12T05:23:47.794Z,10.70
2017-10-12T05:26:14.015Z,10.70
2017-10-12T05:28:40.261Z,10.70
2017-10-12T05:31:06.855Z,10.70
2017-10-12T05:33:33.042Z,10.70
2017-10-12T05:35:59.241Z,10.70
2017-10-12T05:38:25.448Z,10.70
2017-10-12T05:40:51.962Z,10.80
2017-10-12T05:43:18.143Z,10.70
2017-10-12T05:45:44.338Z,10.60
2017-10-12T05:48:10.540Z,10.70
2017-10-12T05:50:36.749Z,10.70
2017-10-12T05:53:03.009Z,10.70
2017-10-12T05:55:29.209Z,10.80
2017-10-12T05:57:55.474Z,10.80
2017-10-12T06:00:21.696Z,10.80
2017-10-12T06:02:47.939Z,10.80
2017-10-12T06:05:14.194Z,10.80
2017-10-12T06:07:40.387Z,10.90
2017-10-12T06:10:06.590Z,11.00
2017-10-12T06:12:32.834Z,11.10
2017-10-12T06:14:59.073Z,11.20
2017-10-12T06:17:25.323Z,11.40
2017-10-12T06:19:51.504Z,11.60
2017-10-12T06:22:17.720Z,11.70
2017-10-12T06:24:43.901Z,11.80
2017-10-12T06:27:10.149Z,11.80
2017-10-12T06:29:36.737Z,11.90
2017-10-12T06:32:02.961Z,11.90
2017-10-12T06:34:29.167Z,11.90
2017-10-12T06:36:55.396Z,11.80
2017-10-12T06:39:21.605Z,11.90
2017-10-12T06:41:47.872Z,12.00
2017-10-12T06:44:14.100Z,12.10
2017-10-12T06:46:40.345Z,12.10
2017-10-12T06:49:06.612Z,12.30
2017-10-12T06:51:33.217Z,12.30
2017-10-12T06:53:59.811Z,12.30
2017-10-12T06:56:26.014Z,12.40
2017-10-12T06:58:52.256Z,12.30
2017-10-12T07:01:18.466Z,12.40
2017-10-12T07:03:44.665Z,12.40
2017-10-12T07:06:10.871Z,12.60
2017-10-12T07:08:37.054Z,12.60
2017-10-12T07:11:03.273Z,12.70
2017-10-12T07:13:29.926Z,13.00
2017-10-12T07:15:56.114Z,13.00
2017-10-12T07:18:22.324Z,13.00
2017-10-12T07:20:48.543Z,13.00
2017-10-12T07:23:14.774Z,13.10
2017-10-12T07:25:40.990Z,13.20
2017-10-12T07:28:07.218Z,13.20
2017-10-12T07:30:37.594Z,13.30
2017-10-12T07:33:04.202Z,13.20
2017-10-12T07:35:30.428Z,13.20
2017-10-12T07:37:56.639Z,13.20
2017-10-12T07:40:22.890Z,13.40
2017-10-12T07:42:49.490Z,13.30
2017-10-12T07:45:15.695Z,13.30
2017-10-12T07:47:41.883Z,13.30
2017-10-12T07:50:10.858Z,13.50
2017-10-12T07:52:37.068Z,13.70
2017-10-12T07:55:03.271Z,13.80
2017-10-12T07:57:29.479Z,13.50
2017-10-12T07:59:55.662Z,13.60
2017-10-12T08:02:21.875Z,13.80
2017-10-12T08:04:48.152Z,13.90
2017-10-12T08:07:14.378Z,13.80
2017-10-12T08:09:40.601Z,13.80
2017-10-12T08:12:06.796Z,13.80
2017-10-12T08:14:33.003Z,14.10
2017-10-12T08:16:59.198Z,14.60
2017-10-12T08:19:25.805Z,15.10
2017-10-12T08:21:52.066Z,15.10
2017-10-12T08:24:18.656Z,15.20
2017-10-12T08:26:44.891Z,15.20
2017-10-12T08:29:11.609Z,15.00
2017-10-12T08:31:37.917Z,15.10
2017-10-12T08:34:04.123Z,14.80
2017-10-12T08:36:30.362Z,14.70
2017-10-12T08:38:56.565Z,14.60
2017-10-12T08:41:23.108Z,14.60
2017-10-12T08:43:49.678Z,14.70
2017-10-12T08:46:15.879Z,14.80
2017-10-12T08:48:42.117Z,14.70
2017-10-12T08:51:09.121Z,14.80
2017-10-12T08:53:35.388Z,15.00
2017-10-12T08:56:01.608Z,15.00
2017-10-12T08:58:28.224Z,15.50
2017-10-12T09:00:54.465Z,15.50
2017-10-12T09:03:20.665Z,15.40
2017-10-12T09:05:46.909Z,15.70
2017-10-12T09:08:13.159Z,15.80
2017-10-12T09:10:39.450Z,16.00
2017-10-12T09:13:05.650Z,16.20
2017-10-12T09:15:31.869Z,16.50
2017-10-12T09:17:58.064Z,16.70
2017-10-12T09:20:24.382Z,17.00
2017-10-12T09:22:50.587Z,17.20
2017-10-12T09:25:16.790Z,17.20
2017-10-12T09:27:43.072Z,17.30
2017-10-12T09:30:09.316Z,17.50
2017-10-12T09:32:35.936Z,17.20
2017-10-12T09:35:02.200Z,17.30
2017-10-12T09:37:28.819Z,17.20
2017-10-12T09:39:55.090Z,17.20
2017-10-12T09:42:21.656Z,17.60
2017-10-12T09:44:47.899Z,17.80
2017-10-12T09:47:14.134Z,18.30
2017-10-12T09:49:40.374Z,18.60
2017-10-12T09:52:07.074Z,18.90
2017-10-12T09:54:33.359Z,18.90
2017-10-12T09:57:00.035Z,19.00
2017-10-12T09:59:26.300Z,19.00
2017-10-12T10:01:52.529Z,19.10
2017-10-12T10:04:18.769Z,19.20
2017-10-12T10:06:45.450Z,20.20
2017-10-12T10:09:11.667Z,20.20
2017-10-12T10:11:37.908Z,21.50
2017-10-12T10:14:05.026Z,23.50
2017-10-12T10:16:31.621Z,27.10
2017-10-12T10:18:58.488Z,27.10
2017-10-12T10:21:24.697Z,27.10
2017-10-12T10:23:50.896Z,26.10
2017-10-12T10:26:17.138Z,25.50
2017-10-12T10:28:43.393Z,27.40
2017-10-12T10:31:09.582Z,28.00
2017-10-12T10:33:35.838Z,26.80
2017-10-12T10:36:02.073Z,25.50
2017-10-12T10:38:28.292Z,24.70
2017-10-12T10:40:54.501Z,23.90
2017-10-12T10:43:20.706Z,23.90
2017-10-12T10:45:46.878Z,23.80
2017-10-12T10:48:13.096Z,24.70
2017-10-12T10:50:39.332Z,26.90
2017-10-12T10:53:05.564Z,28.50
2017-10-12T10:55:31.866Z,30.00
2017-10-12T10:57:58.048Z,31.20
2017-10-12T11:00:24.273Z,31.00
2017-10-12T11:02:50.531Z,28.10
2017-10-12T11:05:17.011Z,27.10
2017-10-12T11:07:43.216Z,29.10
2017-10-12T11:10:09.429Z,30.00
2017-10-12T11:12:35.668Z,30.00
2017-10-12T11:15:01.914Z,28.80
2017-10-12T11:17:28.163Z,26.50
2017-10-12T11:19:54.819Z,29.20
2017-10-12T11:22:21.423Z,31.80
2017-10-12T11:24:47.640Z,31.80
2017-10-12T11:27:13.913Z,35.20
2017-10-12T11:29:40.128Z,37.00
2017-10-12T11:32:06.712Z,35.50
2017-10-12T11:34:32.955Z,35.60
2017-10-12T11:36:59.174Z,34.60
2017-10-12T11:39:25.650Z,34.00
2017-10-12T11:41:51.865Z,35.40
2017-10-12T11:44:18.107Z,36.70
2017-10-12T11:46:44.709Z,36.30
2017-10-12T11:49:10.916Z,36.30
2017-10-12T11:51:37.174Z,32.30
2017-10-12T11:54:03.379Z,30.00
2017-10-12T11:56:29.608Z,28.10
2017-10-12T11:58:55.816Z,26.50
2017-10-12T12:01:22.041Z,27.30
2017-10-12T12:03:48.299Z,27.80
2017-10-12T12:06:14.492Z,27.80
2017-10-12T12:08:40.725Z,26.20
2017-10-12T12:11:06.956Z,26.40
2017-10-12T12:13:33.188Z,28.30
2017-10-12T12:15:59.409Z,31.10
2017-10-12T12:18:26.030Z,33.60
2017-10-12T12:20:52.612Z,36.80
2017-10-12T12:23:18.838Z,36.90
2017-10-12T12:25:45.078Z,36.80
2017-10-12T12:28:11.303Z,36.30
2017-10-12T12:30:37.531Z,35.70
2017-10-12T12:33:03.759Z,32.80
2017-10-12T12:35:30.010Z,29.70
2017-10-12T12:37:56.248Z,26.80
2017-10-12T12:40:22.497Z,24.60
2017-10-12T12:42:48.714Z,23.50
2017-10-12T12:45:14.961Z,22.60
2017-10-12T12:47:41.228Z,21.90
2017-10-12T12:50:07.476Z,21.20
2017-10-12T12:52:33.725Z,21.00
2017-10-12T12:55:00.330Z,20.70
2017-10-12T12:57:26.555Z,20.80
2017-10-12T12:59:52.760Z,20.40
2017-10-12T13:02:19.016Z,20.20
2017-10-12T13:04:45.237Z,20.20
2017-10-12T13:07:11.473Z,19.80
2017-10-12T13:09:37.726Z,19.90
2017-10-12T13:12:04.326Z,19.80
2017-10-12T13:14:30.586Z,19.80
2017-10-12T13:16:56.779Z,19.80
2017-10-12T13:19:23.066Z,19.70
2017-10-12T13:21:49.282Z,19.90
2017-10-12T13:24:16.994Z,19.80
2017-10-12T13:26:43.277Z,19.70
2017-10-12T13:29:09.602Z,19.80
2017-10-12T13:31:36.310Z,20.40
2017-10-12T13:34:02.554Z,20.40
2017-10-12T13:36:28.873Z,20.40
2017-10-12T13:38:55.119Z,20.50
2017-10-12T13:41:21.758Z,21.50
2017-10-12T13:43:48.402Z,21.60
2017-10-12T13:46:15.073Z,22.40
2017-10-12T13:48:41.338Z,22.40
2017-10-12T13:51:07.674Z,23.40
2017-10-12T13:53:34.005Z,25.40
2017-10-12T13:56:00.267Z,26.40
2017-10-12T13:58:26.671Z,26.30
2017-10-12T14:00:53.431Z,23.80
2017-10-12T14:03:20.139Z,23.80
2017-10-12T14:05:46.418Z,23.00
2017-10-12T14:08:12.619Z,22.70
2017-10-12T14:10:39.224Z,25.00
2017-10-12T14:13:05.423Z,25.00
2017-10-12T14:15:31.653Z,24.80
2017-10-12T14:17:57.883Z,25.40
2017-10-12T14:20:24.079Z,27.00
2017-10-12T14:22:50.704Z,28.40
2017-10-12T14:25:17.294Z,29.60
2017-10-12T14:27:43.576Z,29.60
2017-10-12T14:30:10.188Z,27.10
2017-10-12T14:32:36.474Z,27.10
2017-10-12T14:35:02.677Z,25.20
2017-10-12T14:37:29.263Z,22.60
2017-10-12T14:39:55.447Z,22.60
2017-10-12T14:42:22.538Z,21.60
2017-10-12T14:44:49.596Z,21.30
2017-10-12T14:47:16.064Z,21.20
2017-10-12T14:49:42.635Z,21.20
2017-10-12T14:52:08.840Z,21.20
2017-10-12T14:54:35.056Z,21.00
2017-10-12T14:57:01.249Z,21.00
2017-10-12T14:59:27.775Z,20.90
2017-10-12T15:01:53.973Z,21.00
2017-10-12T15:04:20.190Z,21.40
2017-10-12T15:06:47.095Z,21.80
2017-10-12T15:09:13.283Z,22.00
2017-10-12T15:11:40.472Z,22.00
2017-10-12T15:14:06.973Z,21.80
2017-10-12T15:16:33.188Z,21.30
2017-10-12T15:18:59.391Z,21.20
2017-10-12T15:21:26.000Z,20.80
2017-10-12T15:23:52.244Z,20.80
2017-10-12T15:26:18.456Z,20.80
2017-10-12T15:28:44.676Z,20.80
2017-10-12T15:31:10.933Z,20.40
2017-10-12T15:33:37.176Z,20.30
2017-10-12T15:36:03.424Z,20.20
2017-10-12T15:38:29.645Z,20.50
2017-10-12T15:40:55.831Z,20.50
2017-10-12T15:43:22.346Z,20.60
2017-10-12T15:45:48.605Z,20.20
2017-10-12T15:48:14.834Z,20.20
2017-10-12T15:50:41.435Z,19.90
2017-10-12T15:53:07.658Z,19.90
2017-10-12T15:55:33.877Z,19.60
2017-10-12T15:58:00.149Z,19.40
2017-10-12T16:00:26.751Z,19.20
2017-10-12T16:02:53.796Z,19.20
2017-10-12T16:05:20.048Z,19.10
2017-10-12T16:07:46.975Z,19.10
2017-10-12T16:10:13.165Z,19.00
2017-10-12T16:12:39.400Z,18.90
2017-10-12T16:15:05.614Z,18.80
2017-10-12T16:17:31.817Z,18.60
2017-10-12T16:19:58.691Z,18.70
2017-10-12T16:24:51.196Z,18.50
2017-10-12T16:27:17.477Z,18.10
2017-10-12T16:29:43.763Z,17.70
2017-10-12T16:32:10.967Z,17.70
2017-10-12T16:34:38.139Z,17.70
2017-10-12T16:37:04.385Z,17.70
2017-10-12T16:39:30.646Z,17.70
2017-10-12T16:41:56.867Z,17.70
2017-10-12T16:44:23.540Z,17.60
2017-10-12T16:46:50.676Z,17.60
2017-10-12T16:49:16.912Z,17.70
2017-10-12T16:51:44.223Z,17.60
2017-10-12T16:54:11.063Z,17.50
2017-10-12T16:56:37.291Z,17.50
2017-10-12T16:59:03.562Z,17.40
2017-10-12T17:01:30.354Z,17.40
2017-10-12T17:03:56.580Z,17.40
2017-10-12T17:06:22.824Z,17.20
2017-10-12T17:08:49.104Z,17.30
2017-10-12T17:11:15.432Z,17.30
2017-10-12T17:13:41.743Z,17.30
2017-10-12T17:16:08.952Z,17.30
2017-10-12T17:18:35.283Z,17.20
2017-10-12T17:21:02.038Z,17.00
2017-10-12T17:25:55.047Z,17.00
2017-10-12T17:30:49.052Z,16.90
2017-10-12T17:33:15.532Z,16.90
2017-10-12T17:35:42.397Z,16.80
2017-10-12T17:38:09.223Z,16.80
2017-10-12T17:40:35.696Z,16.90
2017-10-12T17:43:03.087Z,16.90
2017-10-12T17:45:30.079Z,16.90
2017-10-12T17:47:56.614Z,16.80
2017-10-12T17:50:23.175Z,16.70
2017-10-12T17:52:49.952Z,16.60
2017-10-12T17:55:16.484Z,16.50
2017-10-12T17:57:44.906Z,16.40
2017-10-12T18:00:11.479Z,16.30
2017-10-12T18:02:39.208Z,16.20
2017-10-12T18:05:06.210Z,16.20
2017-10-12T18:07:32.677Z,16.20
2017-10-12T18:09:59.080Z,16.20
2017-10-12T18:12:26.706Z,16.10
2017-10-12T18:14:53.077Z,16.20
2017-10-12T18:17:21.052Z,16.10
2017-10-12T18:19:47.373Z,16.10
2017-10-12T18:22:13.815Z,16.00
2017-10-12T18:24:40.337Z,16.00
2017-10-12T18:27:06.976Z,16.00
2017-10-12T18:29:33.742Z,15.90
2017-10-12T18:32:02.455Z,15.80
2017-10-12T18:34:28.836Z,15.70
2017-10-12T18:36:55.893Z,15.70
2017-10-12T18:39:22.766Z,15.40
2017-10-12T18:41:49.621Z,15.50
2017-10-12T18:44:15.986Z,15.30
2017-10-12T18:46:42.295Z,15.30
2017-10-12T18:49:09.115Z,15.20
2017-10-12T18:51:35.608Z,15.30
2017-10-12T18:54:02.890Z,15.20
2017-10-12T18:56:29.398Z,15.10
2017-10-12T18:58:56.021Z,15.10
2017-10-12T19:01:22.686Z,15.10
2017-10-12T19:03:48.951Z,15.00
2017-10-12T19:06:15.287Z,14.90
2017-10-12T19:08:41.586Z,14.90
2017-10-12T19:11:08.157Z,14.90
2017-10-12T19:13:35.377Z,14.80
2017-10-12T19:16:01.781Z,14.80
2017-10-12T19:18:28.023Z,14.70
2017-10-12T19:20:54.370Z,14.70
2017-10-12T19:23:20.651Z,14.60
2017-10-12T19:25:46.935Z,14.60
2017-10-12T19:28:42.942Z,14.60
2017-10-12T19:30:39.620Z,14.60
2017-10-12T19:35:32.321Z,14.60
2017-10-12T19:37:59.197Z,14.50
2017-10-12T19:40:25.715Z,14.50
2017-10-12T19:42:52.326Z,14.50
2017-10-12T19:45:18.583Z,14.50
2017-10-12T19:47:45.870Z,14.50
2017-10-12T19:50:12.520Z,14.50
2017-10-12T19:52:38.795Z,14.50
2017-10-12T19:55:05.418Z,14.40
2017-10-12T19:57:31.828Z,14.40
2017-10-12T19:59:59.526Z,14.40
2017-10-12T20:02:26.422Z,14.30
2017-10-12T20:04:52.978Z,14.30
2017-10-12T20:07:19.324Z,14.30
2017-10-12T20:09:45.548Z,14.30
2017-10-12T20:12:11.802Z,14.20
2017-10-12T20:14:38.442Z,14.20
2017-10-12T20:17:05.415Z,14.20
2017-10-12T20:19:31.643Z,14.20
2017-10-12T20:21:57.861Z,14.20
2017-10-12T20:26:50.422Z,14.10
2017-10-12T20:29:31.769Z,14.10
2017-10-12T20:31:45.528Z,14.00
2017-10-12T20:34:11.893Z,14.00
2017-10-12T20:36:38.153Z,14.00
2017-10-12T20:39:05.164Z,14.00
2017-10-12T20:41:31.524Z,13.90
2017-10-12T20:43:57.758Z,13.70
2017-10-12T20:46:24.058Z,13.80
2017-10-12T20:48:50.552Z,13.80
2017-10-12T20:51:16.809Z,13.80
2017-10-12T20:53:43.005Z,13.80
2017-10-12T20:56:09.598Z,13.80
2017-10-12T20:58:35.824Z,13.80
2017-10-12T21:01:02.037Z,13.80
2017-10-12T21:03:29.662Z,13.80
2017-10-12T21:05:56.243Z,13.80
2017-10-12T21:08:22.439Z,13.80
2017-10-12T21:10:48.693Z,13.70
2017-10-12T21:13:15.911Z,13.70
2017-10-12T21:15:42.123Z,13.80
2017-10-12T21:18:08.365Z,13.70
2017-10-12T21:20:34.593Z,13.80
2017-10-12T21:23:00.848Z,13.80
2017-10-12T21:25:27.108Z,13.80
2017-10-12T21:27:53.373Z,13.60
2017-10-12T21:30:20.377Z,13.60
2017-10-12T21:32:46.579Z,13.60
2017-10-12T21:35:12.815Z,13.60
2017-10-12T21:37:39.043Z,13.60
2017-10-12T21:40:05.255Z,13.50
2017-10-12T21:42:31.462Z,13.50
2017-10-12T21:44:58.219Z,13.30
2017-10-12T21:47:25.088Z,13.30
2017-10-12T21:49:51.325Z,13.30
2017-10-12T21:52:18.393Z,13.30
2017-10-12T21:54:44.679Z,13.30
2017-10-12T21:57:10.886Z,13.30
2017-10-12T21:59:37.162Z,13.30
2017-10-12T22:02:04.313Z,13.20
2017-10-12T22:04:30.531Z,13.30
2017-10-12T22:06:56.791Z,13.20
2017-10-12T22:09:23.057Z,13.20
2017-10-12T22:11:49.363Z,13.20
2017-10-12T22:14:16.385Z,13.20
2017-10-12T22:16:43.163Z,13.20
2017-10-12T22:19:09.376Z,13.30
2017-10-12T22:21:35.599Z,13.30
2017-10-12T22:24:02.200Z,13.20
2017-10-12T22:26:28.399Z,13.20
2017-10-12T22:28:54.695Z,13.20
2017-10-12T22:31:20.915Z,13.10
2017-10-12T22:33:47.132Z,13.10
2017-10-12T22:36:13.375Z,13.10
2017-10-12T22:38:39.612Z,13.00
2017-10-12T22:41:06.506Z,13.00
2017-10-12T22:43:32.710Z,13.00
2017-10-12T22:45:58.963Z,13.00
2017-10-12T22:48:25.168Z,12.90
2017-10-12T22:50:51.385Z,12.80
2017-10-12T22:53:17.603Z,12.80
2017-10-12T22:55:43.798Z,12.70
2017-10-12T22:58:10.293Z,12.60
2017-10-12T23:00:38.346Z,12.60
2017-10-12T23:03:04.544Z,12.50
2017-10-12T23:05:30.772Z,12.50
2017-10-12T23:07:57.002Z,12.40
2017-10-12T23:10:23.207Z,12.40
2017-10-12T23:12:49.421Z,12.30
2017-10-12T23:15:15.644Z,12.30
2017-10-12T23:17:41.841Z,12.30
2017-10-12T23:20:08.032Z,12.20
2017-10-12T23:22:34.605Z,12.10
2017-10-12T23:25:00.830Z,12.10
2017-10-12T23:27:27.030Z,12.10
2017-10-12T23:29:53.321Z,12.10
2017-10-12T23:32:20.201Z,12.00
2017-10-12T23:34:46.397Z,12.00
2017-10-12T23:37:13.440Z,12.10
2017-10-12T23:39:40.278Z,12.10
2017-10-12T23:42:06.495Z,12.00
2017-10-12T23:44:32.731Z,12.10
2017-10-12T23:46:58.951Z,12.10
2017-10-12T23:49:25.160Z,12.10
2017-10-12T23:51:51.352Z,12.00
2017-10-12T23:54:17.584Z,12.10
2017-10-12T23:56:43.816Z,12.00
2017-10-12T23:59:10.436Z,11.90
